sensor_id;sensor_type;location;lat;lon;timestamp;temperature;humidity
1956;DHT22;978;48.314;11.562;2023-04-25T00:01:56;20.50;69.40
1956;DHT22;978;48.314;11.562;2023-04-25T00:04:29;20.50;69.50
1956;DHT22;978;48.314;11.562;2023-04-25T00:06:59;20.50;69.40
1956;DHT22;978;48.314;11.562;2023-04-25T00:09:27;20.50;69.40
1956;DHT22;978;48.314;11.562;2023-04-25T00:11:54;20.50;69.40
1956;DHT22;978;48.314;11.562;2023-04-25T00:14:23;20.50;69.40
1956;DHT22;978;48.314;11.562;2023-04-25T00:16:53;20.50;69.40
1956;DHT22;978;48.314;11.562;2023-04-25T00:19:21;20.50;69.40
1956;DHT22;978;48.314;11.562;2023-04-25T00:21:50;20.50;69.30
1956;DHT22;978;48.314;11.562;2023-04-25T00:24:20;20.50;69.40
1956;DHT22;978;48.314;11.562;2023-04-25T00:26:47;20.50;69.30
1956;DHT22;978;48.314;11.562;2023-04-25T00:29:14;20.50;69.30
1956;DHT22;978;48.314;11.562;2023-04-25T00:31:44;20.50;69.30
1956;DHT22;978;48.314;11.562;2023-04-25T00:34:10;20.50;69.30
1956;DHT22;978;48.314;11.562;2023-04-25T00:36:40;20.50;69.30
1956;DHT22;978;48.314;11.562;2023-04-25T00:39:08;20.50;69.30
1956;DHT22;978;48.314;11.562;2023-04-25T00:41:35;20.50;69.30
1956;DHT22;978;48.314;11.562;2023-04-25T00:44:04;20.50;69.30
1956;DHT22;978;48.314;11.562;2023-04-25T00:46:33;20.40;69.30
1956;DHT22;978;48.314;11.562;2023-04-25T00:49:00;20.50;69.30
1956;DHT22;978;48.314;11.562;2023-04-25T00:51:27;20.50;69.30
1956;DHT22;978;48.314;11.562;2023-04-25T00:53:57;20.50;69.30
1956;DHT22;978;48.314;11.562;2023-04-25T00:56:25;20.50;69.30
1956;DHT22;978;48.314;11.562;2023-04-25T00:58:53;20.50;69.30
1956;DHT22;978;48.314;11.562;2023-04-25T01:01:21;20.50;69.30
1956;DHT22;978;48.314;11.562;2023-04-25T01:03:49;20.50;69.20
1956;DHT22;978;48.314;11.562;2023-04-25T01:06:18;20.50;69.20
1956;DHT22;978;48.314;11.562;2023-04-25T01:08:47;20.50;69.20
1956;DHT22;978;48.314;11.562;2023-04-25T01:11:17;20.50;69.20
1956;DHT22;978;48.314;11.562;2023-04-25T01:13:45;20.50;69.20
1956;DHT22;978;48.314;11.562;2023-04-25T01:16:12;20.50;69.20
1956;DHT22;978;48.314;11.562;2023-04-25T01:18:40;20.50;69.10
1956;DHT22;978;48.314;11.562;2023-04-25T01:21:08;20.50;69.20
1956;DHT22;978;48.314;11.562;2023-04-25T01:23:37;20.50;69.10
1956;DHT22;978;48.314;11.562;2023-04-25T01:26:06;20.50;69.10
1956;DHT22;978;48.314;11.562;2023-04-25T01:28:33;20.50;69.10
1956;DHT22;978;48.314;11.562;2023-04-25T01:31:02;20.50;69.10
1956;DHT22;978;48.314;11.562;2023-04-25T01:33:30;20.50;69.10
1956;DHT22;978;48.314;11.562;2023-04-25T01:36:01;20.50;69.10
1956;DHT22;978;48.314;11.562;2023-04-25T01:38:29;20.50;69.10
1956;DHT22;978;48.314;11.562;2023-04-25T01:40:57;20.50;69.10
1956;DHT22;978;48.314;11.562;2023-04-25T01:43:26;20.50;69.00
1956;DHT22;978;48.314;11.562;2023-04-25T01:45:56;20.50;69.00
1956;DHT22;978;48.314;11.562;2023-04-25T01:48:23;20.50;69.00
1956;DHT22;978;48.314;11.562;2023-04-25T01:50:51;20.50;69.00
1956;DHT22;978;48.314;11.562;2023-04-25T01:53:21;20.50;69.00
1956;DHT22;978;48.314;11.562;2023-04-25T01:55:49;20.50;69.00
1956;DHT22;978;48.314;11.562;2023-04-25T01:58:18;20.50;69.00
1956;DHT22;978;48.314;11.562;2023-04-25T02:00:46;20.50;69.00
1956;DHT22;978;48.314;11.562;2023-04-25T02:03:13;20.50;69.00
1956;DHT22;978;48.314;11.562;2023-04-25T02:05:40;20.50;68.90
1956;DHT22;978;48.314;11.562;2023-04-25T02:08:09;20.50;68.90
1956;DHT22;978;48.314;11.562;2023-04-25T02:10:36;20.50;68.90
1956;DHT22;978;48.314;11.562;2023-04-25T02:13:04;20.50;68.90
1956;DHT22;978;48.314;11.562;2023-04-25T02:15:32;20.50;68.80
1956;DHT22;978;48.314;11.562;2023-04-25T02:18:01;20.50;68.90
1956;DHT22;978;48.314;11.562;2023-04-25T02:20:29;20.50;68.80
1956;DHT22;978;48.314;11.562;2023-04-25T02:23:02;20.50;68.80
1956;DHT22;978;48.314;11.562;2023-04-25T02:25:30;20.50;68.80
1956;DHT22;978;48.314;11.562;2023-04-25T02:27:57;20.50;68.80
1956;DHT22;978;48.314;11.562;2023-04-25T02:30:39;20.50;68.80
1956;DHT22;978;48.314;11.562;2023-04-25T02:33:06;20.50;68.80
1956;DHT22;978;48.314;11.562;2023-04-25T02:35:32;20.50;68.80
1956;DHT22;978;48.314;11.562;2023-04-25T02:38:01;20.50;68.70
1956;DHT22;978;48.314;11.562;2023-04-25T02:40:27;20.50;68.70
1956;DHT22;978;48.314;11.562;2023-04-25T02:42:56;20.50;68.70
1956;DHT22;978;48.314;11.562;2023-04-25T02:45:22;20.50;68.70
1956;DHT22;978;48.314;11.562;2023-04-25T02:47:54;20.50;68.70
1956;DHT22;978;48.314;11.562;2023-04-25T02:50:22;20.50;68.70
1956;DHT22;978;48.314;11.562;2023-04-25T02:52:48;20.50;68.70
1956;DHT22;978;48.314;11.562;2023-04-25T02:55:16;20.50;68.70
1956;DHT22;978;48.314;11.562;2023-04-25T02:57:43;20.50;68.70
1956;DHT22;978;48.314;11.562;2023-04-25T03:00:11;20.50;68.70
1956;DHT22;978;48.314;11.562;2023-04-25T03:02:39;20.50;68.60
1956;DHT22;978;48.314;11.562;2023-04-25T03:05:08;20.50;68.70
1956;DHT22;978;48.314;11.562;2023-04-25T03:07:37;20.50;68.70
1956;DHT22;978;48.314;11.562;2023-04-25T03:10:06;20.50;68.70
1956;DHT22;978;48.314;11.562;2023-04-25T03:12:33;20.50;68.60
1956;DHT22;978;48.314;11.562;2023-04-25T03:15:04;20.50;68.60
1956;DHT22;978;48.314;11.562;2023-04-25T03:17:31;20.50;69.20
1956;DHT22;978;48.314;11.562;2023-04-25T03:19:59;20.50;68.60
1956;DHT22;978;48.314;11.562;2023-04-25T03:22:42;20.50;68.60
1956;DHT22;978;48.314;11.562;2023-04-25T03:25:10;20.50;68.60
1956;DHT22;978;48.314;11.562;2023-04-25T03:27:37;20.50;68.50
1956;DHT22;978;48.314;11.562;2023-04-25T03:30:06;20.50;68.50
1956;DHT22;978;48.314;11.562;2023-04-25T03:32:33;20.50;68.50
1956;DHT22;978;48.314;11.562;2023-04-25T03:35:01;20.50;68.50
1956;DHT22;978;48.314;11.562;2023-04-25T03:37:32;20.50;68.50
1956;DHT22;978;48.314;11.562;2023-04-25T03:40:01;20.50;68.50
1956;DHT22;978;48.314;11.562;2023-04-25T03:42:30;20.50;68.50
1956;DHT22;978;48.314;11.562;2023-04-25T03:45:02;20.50;68.50
1956;DHT22;978;48.314;11.562;2023-04-25T03:47:30;20.50;68.50
1956;DHT22;978;48.314;11.562;2023-04-25T03:49:58;20.50;68.50
1956;DHT22;978;48.314;11.562;2023-04-25T03:52:28;20.50;68.50
1956;DHT22;978;48.314;11.562;2023-04-25T03:55:04;20.50;68.50
1956;DHT22;978;48.314;11.562;2023-04-25T03:57:31;20.50;68.50
1956;DHT22;978;48.314;11.562;2023-04-25T04:00:01;20.50;68.50
1956;DHT22;978;48.314;11.562;2023-04-25T04:02:32;20.50;68.40
1956;DHT22;978;48.314;11.562;2023-04-25T04:05:04;20.50;68.40
1956;DHT22;978;48.314;11.562;2023-04-25T04:07:32;20.50;68.50
1956;DHT22;978;48.314;11.562;2023-04-25T04:10:06;20.50;68.40
1956;DHT22;978;48.314;11.562;2023-04-25T04:12:34;20.50;68.50
1956;DHT22;978;48.314;11.562;2023-04-25T04:15:03;20.50;68.50
1956;DHT22;978;48.314;11.562;2023-04-25T04:17:32;20.50;68.40
1956;DHT22;978;48.314;11.562;2023-04-25T04:20:01;20.50;68.40
1956;DHT22;978;48.314;11.562;2023-04-25T04:22:31;20.50;68.40
1956;DHT22;978;48.314;11.562;2023-04-25T04:24:59;20.50;68.40
1956;DHT22;978;48.314;11.562;2023-04-25T04:27:32;20.50;68.40
1956;DHT22;978;48.314;11.562;2023-04-25T04:29:58;20.50;68.40
1956;DHT22;978;48.314;11.562;2023-04-25T04:32:26;20.50;68.40
1956;DHT22;978;48.314;11.562;2023-04-25T04:34:53;20.50;68.40
1956;DHT22;978;48.314;11.562;2023-04-25T04:37:20;20.50;68.90
1956;DHT22;978;48.314;11.562;2023-04-25T04:39:48;20.50;68.30
1956;DHT22;978;48.314;11.562;2023-04-25T04:42:16;20.50;68.30
1956;DHT22;978;48.314;11.562;2023-04-25T04:44:44;20.50;68.30
1956;DHT22;978;48.314;11.562;2023-04-25T04:47:11;20.50;68.30
1956;DHT22;978;48.314;11.562;2023-04-25T04:49:39;20.50;68.30
1956;DHT22;978;48.314;11.562;2023-04-25T04:52:06;20.50;68.30
1956;DHT22;978;48.314;11.562;2023-04-25T04:54:34;20.50;68.30
1956;DHT22;978;48.314;11.562;2023-04-25T04:57:02;20.50;68.30
1956;DHT22;978;48.314;11.562;2023-04-25T04:59:29;20.50;68.30
1956;DHT22;978;48.314;11.562;2023-04-25T05:01:59;20.50;68.30
1956;DHT22;978;48.314;11.562;2023-04-25T05:04:26;20.50;68.30
1956;DHT22;978;48.314;11.562;2023-04-25T05:06:53;20.50;68.30
1956;DHT22;978;48.314;11.562;2023-04-25T05:09:20;20.50;68.30
1956;DHT22;978;48.314;11.562;2023-04-25T05:11:51;20.50;68.30
1956;DHT22;978;48.314;11.562;2023-04-25T05:14:17;20.50;68.30
1956;DHT22;978;48.314;11.562;2023-04-25T05:16:44;20.50;68.30
1956;DHT22;978;48.314;11.562;2023-04-25T05:19:12;20.50;68.20
1956;DHT22;978;48.314;11.562;2023-04-25T05:21:40;20.50;68.10
1956;DHT22;978;48.314;11.562;2023-04-25T05:24:09;20.50;68.10
1956;DHT22;978;48.314;11.562;2023-04-25T05:26:38;20.50;68.10
1956;DHT22;978;48.314;11.562;2023-04-25T05:29:06;20.50;68.00
1956;DHT22;978;48.314;11.562;2023-04-25T05:31:33;20.50;67.90
1956;DHT22;978;48.314;11.562;2023-04-25T05:34:00;20.50;67.90
1956;DHT22;978;48.314;11.562;2023-04-25T05:36:28;20.50;67.80
1956;DHT22;978;48.314;11.562;2023-04-25T05:38:56;20.50;67.80
1956;DHT22;978;48.314;11.562;2023-04-25T05:41:24;20.50;67.70
1956;DHT22;978;48.314;11.562;2023-04-25T05:43:52;20.50;67.70
1956;DHT22;978;48.314;11.562;2023-04-25T05:46:18;20.50;67.60
1956;DHT22;978;48.314;11.562;2023-04-25T05:48:47;20.50;67.60
1956;DHT22;978;48.314;11.562;2023-04-25T05:51:13;20.50;67.60
1956;DHT22;978;48.314;11.562;2023-04-25T05:53:43;20.50;67.50
1956;DHT22;978;48.314;11.562;2023-04-25T05:56:09;20.50;67.50
1956;DHT22;978;48.314;11.562;2023-04-25T05:58:36;20.40;67.40
1956;DHT22;978;48.314;11.562;2023-04-25T06:01:03;20.50;67.50
1956;DHT22;978;48.314;11.562;2023-04-25T06:03:30;20.50;67.40
1956;DHT22;978;48.314;11.562;2023-04-25T06:05:57;20.50;67.40
1956;DHT22;978;48.314;11.562;2023-04-25T06:08:24;20.50;67.40
1956;DHT22;978;48.314;11.562;2023-04-25T06:10:54;20.50;67.40
1956;DHT22;978;48.314;11.562;2023-04-25T06:13:24;20.50;67.30
1956;DHT22;978;48.314;11.562;2023-04-25T06:15:51;20.50;67.30
1956;DHT22;978;48.314;11.562;2023-04-25T06:18:21;20.50;67.30
1956;DHT22;978;48.314;11.562;2023-04-25T06:20:49;20.50;67.20
1956;DHT22;978;48.314;11.562;2023-04-25T06:23:19;20.50;67.20
1956;DHT22;978;48.314;11.562;2023-04-25T06:25:48;20.50;67.20
1956;DHT22;978;48.314;11.562;2023-04-25T06:28:16;20.50;67.20
1956;DHT22;978;48.314;11.562;2023-04-25T06:30:43;20.50;67.20
1956;DHT22;978;48.314;11.562;2023-04-25T06:33:11;20.50;67.10
1956;DHT22;978;48.314;11.562;2023-04-25T06:35:37;20.50;67.20
1956;DHT22;978;48.314;11.562;2023-04-25T06:38:04;20.50;67.10
1956;DHT22;978;48.314;11.562;2023-04-25T06:40:31;20.50;67.10
1956;DHT22;978;48.314;11.562;2023-04-25T06:42:58;20.50;67.10
1956;DHT22;978;48.314;11.562;2023-04-25T06:45:26;20.50;67.10
1956;DHT22;978;48.314;11.562;2023-04-25T06:47:54;20.50;67.10
1956;DHT22;978;48.314;11.562;2023-04-25T06:50:23;20.50;67.00
1956;DHT22;978;48.314;11.562;2023-04-25T06:52:53;20.50;67.10
1956;DHT22;978;48.314;11.562;2023-04-25T06:55:20;20.50;67.10
1956;DHT22;978;48.314;11.562;2023-04-25T06:57:48;20.50;67.10
1956;DHT22;978;48.314;11.562;2023-04-25T07:00:15;20.50;67.10
1956;DHT22;978;48.314;11.562;2023-04-25T07:02:43;20.50;67.00
1956;DHT22;978;48.314;11.562;2023-04-25T07:05:10;20.50;67.00
1956;DHT22;978;48.314;11.562;2023-04-25T07:07:37;20.50;67.00
1956;DHT22;978;48.314;11.562;2023-04-25T07:10:04;20.50;67.00
1956;DHT22;978;48.314;11.562;2023-04-25T07:12:31;20.50;67.00
1956;DHT22;978;48.314;11.562;2023-04-25T07:14:58;20.50;67.00
1956;DHT22;978;48.314;11.562;2023-04-25T07:17:32;20.50;67.00
1956;DHT22;978;48.314;11.562;2023-04-25T07:20:01;20.40;67.00
1956;DHT22;978;48.314;11.562;2023-04-25T07:22:29;20.50;67.10
1956;DHT22;978;48.314;11.562;2023-04-25T07:24:56;20.50;67.10
1956;DHT22;978;48.314;11.562;2023-04-25T07:27:23;20.40;67.10
1956;DHT22;978;48.314;11.562;2023-04-25T07:29:51;20.50;67.30
1956;DHT22;978;48.314;11.562;2023-04-25T07:32:20;20.50;67.30
1956;DHT22;978;48.314;11.562;2023-04-25T07:34:46;20.50;67.30
1956;DHT22;978;48.314;11.562;2023-04-25T07:37:16;20.50;67.40
1956;DHT22;978;48.314;11.562;2023-04-25T07:39:44;20.40;67.30
1956;DHT22;978;48.314;11.562;2023-04-25T07:42:11;20.50;67.40
1956;DHT22;978;48.314;11.562;2023-04-25T07:44:38;20.50;67.40
1956;DHT22;978;48.314;11.562;2023-04-25T07:47:07;20.50;67.40
1956;DHT22;978;48.314;11.562;2023-04-25T07:49:33;20.50;67.50
1956;DHT22;978;48.314;11.562;2023-04-25T07:52:04;20.50;67.50
1956;DHT22;978;48.314;11.562;2023-04-25T07:54:34;20.40;67.50
1956;DHT22;978;48.314;11.562;2023-04-25T07:57:03;20.40;67.50
1956;DHT22;978;48.314;11.562;2023-04-25T07:59:31;20.40;67.50
1956;DHT22;978;48.314;11.562;2023-04-25T08:02:00;20.40;67.50
1956;DHT22;978;48.314;11.562;2023-04-25T08:04:28;20.40;67.60
1956;DHT22;978;48.314;11.562;2023-04-25T08:06:56;20.40;67.60
1956;DHT22;978;48.314;11.562;2023-04-25T08:09:22;20.50;67.60
1956;DHT22;978;48.314;11.562;2023-04-25T08:11:53;20.40;67.60
1956;DHT22;978;48.314;11.562;2023-04-25T08:14:20;20.50;67.70
1956;DHT22;978;48.314;11.562;2023-04-25T08:16:47;20.40;67.60
1956;DHT22;978;48.314;11.562;2023-04-25T08:19:14;20.40;67.70
1956;DHT22;978;48.314;11.562;2023-04-25T08:21:40;20.50;67.70
1956;DHT22;978;48.314;11.562;2023-04-25T08:24:07;20.50;68.30
1956;DHT22;978;48.314;11.562;2023-04-25T08:26:34;20.40;67.60
1956;DHT22;978;48.314;11.562;2023-04-25T08:29:04;20.50;67.70
1956;DHT22;978;48.314;11.562;2023-04-25T08:31:31;20.50;67.70
1956;DHT22;978;48.314;11.562;2023-04-25T08:33:59;20.50;67.70
1956;DHT22;978;48.314;11.562;2023-04-25T08:36:26;20.40;67.60
1956;DHT22;978;48.314;11.562;2023-04-25T08:38:53;20.40;67.60
1956;DHT22;978;48.314;11.562;2023-04-25T08:41:29;20.40;67.60
1956;DHT22;978;48.314;11.562;2023-04-25T08:43:59;20.50;67.60
1956;DHT22;978;48.314;11.562;2023-04-25T08:46:32;20.50;67.70
1956;DHT22;978;48.314;11.562;2023-04-25T08:49:01;20.40;67.60
1956;DHT22;978;48.314;11.562;2023-04-25T08:51:31;20.40;67.60
1956;DHT22;978;48.314;11.562;2023-04-25T08:54:08;20.40;67.60
1956;DHT22;978;48.314;11.562;2023-04-25T08:56:36;20.40;67.60
1956;DHT22;978;48.314;11.562;2023-04-25T08:59:03;20.40;67.60
1956;DHT22;978;48.314;11.562;2023-04-25T09:01:32;20.40;67.50
1956;DHT22;978;48.314;11.562;2023-04-25T09:03:59;20.50;67.60
1956;DHT22;978;48.314;11.562;2023-04-25T09:06:28;20.50;67.60
1956;DHT22;978;48.314;11.562;2023-04-25T09:09:02;20.50;67.50
1956;DHT22;978;48.314;11.562;2023-04-25T09:11:33;20.50;67.60
1956;DHT22;978;48.314;11.562;2023-04-25T09:14:14;20.50;67.50
1956;DHT22;978;48.314;11.562;2023-04-25T09:17:00;20.50;67.50
1956;DHT22;978;48.314;11.562;2023-04-25T09:19:30;20.50;67.50
1956;DHT22;978;48.314;11.562;2023-04-25T09:22:02;20.50;67.40
1956;DHT22;978;48.314;11.562;2023-04-25T09:24:37;20.50;67.40
1956;DHT22;978;48.314;11.562;2023-04-25T09:27:05;20.50;67.30
1956;DHT22;978;48.314;11.562;2023-04-25T09:29:35;20.50;67.30
1956;DHT22;978;48.314;11.562;2023-04-25T09:32:28;20.50;67.20
1956;DHT22;978;48.314;11.562;2023-04-25T09:34:58;20.50;67.10
1956;DHT22;978;48.314;11.562;2023-04-25T09:37:28;20.50;67.10
1956;DHT22;978;48.314;11.562;2023-04-25T09:40:05;20.50;67.10
1956;DHT22;978;48.314;11.562;2023-04-25T09:42:36;20.50;66.90
1956;DHT22;978;48.314;11.562;2023-04-25T09:45:08;20.50;67.00
1956;DHT22;978;48.314;11.562;2023-04-25T09:47:41;20.50;67.10
1956;DHT22;978;48.314;11.562;2023-04-25T09:50:14;20.50;67.20
1956;DHT22;978;48.314;11.562;2023-04-25T09:52:41;20.50;67.30
1956;DHT22;978;48.314;11.562;2023-04-25T09:55:09;20.50;67.40
1956;DHT22;978;48.314;11.562;2023-04-25T09:57:36;20.50;67.50
1956;DHT22;978;48.314;11.562;2023-04-25T10:00:07;20.50;67.60
1956;DHT22;978;48.314;11.562;2023-04-25T10:02:40;20.50;67.70
1956;DHT22;978;48.314;11.562;2023-04-25T10:05:08;20.50;67.70
1956;DHT22;978;48.314;11.562;2023-04-25T10:07:40;20.50;67.90
1956;DHT22;978;48.314;11.562;2023-04-25T10:10:07;20.50;67.90
1956;DHT22;978;48.314;11.562;2023-04-25T10:12:36;20.60;67.90
1956;DHT22;978;48.314;11.562;2023-04-25T10:15:08;20.50;67.90
1956;DHT22;978;48.314;11.562;2023-04-25T10:17:36;20.50;67.70
1956;DHT22;978;48.314;11.562;2023-04-25T10:20:07;20.50;67.60
1956;DHT22;978;48.314;11.562;2023-04-25T10:22:41;20.50;67.50
1956;DHT22;978;48.314;11.562;2023-04-25T10:25:08;20.50;67.50
1956;DHT22;978;48.314;11.562;2023-04-25T10:27:36;20.50;67.30
1956;DHT22;978;48.314;11.562;2023-04-25T10:30:06;20.50;67.30
1956;DHT22;978;48.314;11.562;2023-04-25T10:32:36;20.50;67.30
1956;DHT22;978;48.314;11.562;2023-04-25T10:35:15;20.50;67.10
1956;DHT22;978;48.314;11.562;2023-04-25T10:38:03;20.50;67.00
1956;DHT22;978;48.314;11.562;2023-04-25T10:40:32;20.50;66.90
1956;DHT22;978;48.314;11.562;2023-04-25T10:43:33;20.50;66.90
1956;DHT22;978;48.314;11.562;2023-04-25T10:46:01;20.50;66.90
1956;DHT22;978;48.314;11.562;2023-04-25T10:48:31;20.50;66.80
1956;DHT22;978;48.314;11.562;2023-04-25T10:51:24;20.50;66.80
1956;DHT22;978;48.314;11.562;2023-04-25T10:53:59;20.50;66.80
1956;DHT22;978;48.314;11.562;2023-04-25T10:56:27;20.50;66.80
1956;DHT22;978;48.314;11.562;2023-04-25T10:59:08;20.50;66.80
1956;DHT22;978;48.314;11.562;2023-04-25T11:01:39;20.50;66.70
1956;DHT22;978;48.314;11.562;2023-04-25T11:04:19;20.50;66.70
1956;DHT22;978;48.314;11.562;2023-04-25T11:07:04;20.50;66.70
1956;DHT22;978;48.314;11.562;2023-04-25T11:09:33;20.50;66.70
1956;DHT22;978;48.314;11.562;2023-04-25T11:12:01;20.50;66.60
1956;DHT22;978;48.314;11.562;2023-04-25T11:14:29;20.50;66.70
1956;DHT22;978;48.314;11.562;2023-04-25T11:16:59;20.50;66.60
1956;DHT22;978;48.314;11.562;2023-04-25T11:19:29;20.50;66.60
1956;DHT22;978;48.314;11.562;2023-04-25T11:22:01;20.50;66.60
1956;DHT22;978;48.314;11.562;2023-04-25T11:24:28;20.40;66.50
1956;DHT22;978;48.314;11.562;2023-04-25T11:26:57;20.50;66.60
1956;DHT22;978;48.314;11.562;2023-04-25T11:29:26;20.50;67.30
1956;DHT22;978;48.314;11.562;2023-04-25T11:31:54;20.50;66.80
1956;DHT22;978;48.314;11.562;2023-04-25T11:34:22;20.50;66.80
1956;DHT22;978;48.314;11.562;2023-04-25T11:36:50;20.50;66.80
1956;DHT22;978;48.314;11.562;2023-04-25T11:39:19;20.50;66.80
1956;DHT22;978;48.314;11.562;2023-04-25T11:41:49;20.50;66.80
1956;DHT22;978;48.314;11.562;2023-04-25T11:44:19;20.50;66.80
1956;DHT22;978;48.314;11.562;2023-04-25T11:46:48;20.50;66.80
1956;DHT22;978;48.314;11.562;2023-04-25T11:49:16;20.50;66.80
1956;DHT22;978;48.314;11.562;2023-04-25T11:51:45;20.50;67.30
1956;DHT22;978;48.314;11.562;2023-04-25T11:54:13;20.50;66.70
1956;DHT22;978;48.314;11.562;2023-04-25T11:56:43;20.50;66.70
1956;DHT22;978;48.314;11.562;2023-04-25T11:59:12;20.50;66.60
1956;DHT22;978;48.314;11.562;2023-04-25T12:01:41;20.50;66.60
1956;DHT22;978;48.314;11.562;2023-04-25T12:04:11;20.50;66.60
1956;DHT22;978;48.314;11.562;2023-04-25T12:06:41;20.50;66.60
1956;DHT22;978;48.314;11.562;2023-04-25T12:09:10;20.50;67.10
1956;DHT22;978;48.314;11.562;2023-04-25T12:11:42;20.50;66.50
1956;DHT22;978;48.314;11.562;2023-04-25T12:14:10;20.50;66.50
1956;DHT22;978;48.314;11.562;2023-04-25T12:16:42;20.50;66.50
1956;DHT22;978;48.314;11.562;2023-04-25T12:19:08;20.50;66.50
1956;DHT22;978;48.314;11.562;2023-04-25T12:21:36;20.50;66.50
1956;DHT22;978;48.314;11.562;2023-04-25T12:24:15;20.50;66.50
1956;DHT22;978;48.314;11.562;2023-04-25T12:26:52;20.50;66.50
1956;DHT22;978;48.314;11.562;2023-04-25T12:29:22;20.50;66.50
1956;DHT22;978;48.314;11.562;2023-04-25T12:31:54;20.50;66.50
1956;DHT22;978;48.314;11.562;2023-04-25T12:34:24;20.50;66.50
1956;DHT22;978;48.314;11.562;2023-04-25T12:36:51;20.50;66.50
1956;DHT22;978;48.314;11.562;2023-04-25T12:39:20;20.50;66.50
1956;DHT22;978;48.314;11.562;2023-04-25T12:41:48;20.50;66.50
1956;DHT22;978;48.314;11.562;2023-04-25T12:44:16;20.50;66.50
1956;DHT22;978;48.314;11.562;2023-04-25T12:46:43;20.50;66.50
1956;DHT22;978;48.314;11.562;2023-04-25T12:49:10;20.50;67.00
1956;DHT22;978;48.314;11.562;2023-04-25T12:51:37;20.50;66.50
1956;DHT22;978;48.314;11.562;2023-04-25T12:54:05;20.50;66.50
1956;DHT22;978;48.314;11.562;2023-04-25T12:56:35;20.50;66.50
1956;DHT22;978;48.314;11.562;2023-04-25T12:59:02;20.50;67.00
1956;DHT22;978;48.314;11.562;2023-04-25T13:01:30;20.50;66.50
1956;DHT22;978;48.314;11.562;2023-04-25T13:03:57;20.40;66.40
1956;DHT22;978;48.314;11.562;2023-04-25T13:06:24;20.50;66.50
1956;DHT22;978;48.314;11.562;2023-04-25T13:08:51;20.50;66.50
1956;DHT22;978;48.314;11.562;2023-04-25T13:11:18;20.50;66.50
1956;DHT22;978;48.314;11.562;2023-04-25T13:13:45;20.50;66.50
1956;DHT22;978;48.314;11.562;2023-04-25T13:16:12;20.50;66.50
1956;DHT22;978;48.314;11.562;2023-04-25T13:18:41;20.50;66.50
1956;DHT22;978;48.314;11.562;2023-04-25T13:21:09;20.50;66.50
1956;DHT22;978;48.314;11.562;2023-04-25T13:23:37;20.50;66.50
1956;DHT22;978;48.314;11.562;2023-04-25T13:26:03;20.50;66.50
1956;DHT22;978;48.314;11.562;2023-04-25T13:28:32;20.50;66.50
1956;DHT22;978;48.314;11.562;2023-04-25T13:30:59;20.50;66.50
1956;DHT22;978;48.314;11.562;2023-04-25T13:33:26;20.50;66.50
1956;DHT22;978;48.314;11.562;2023-04-25T13:35:54;20.50;66.50
1956;DHT22;978;48.314;11.562;2023-04-25T13:38:23;20.50;66.50
1956;DHT22;978;48.314;11.562;2023-04-25T13:40:50;20.50;66.60
1956;DHT22;978;48.314;11.562;2023-04-25T13:43:18;20.50;66.70
1956;DHT22;978;48.314;11.562;2023-04-25T13:45:46;20.50;66.70
1956;DHT22;978;48.314;11.562;2023-04-25T13:48:12;20.50;66.80
1956;DHT22;978;48.314;11.562;2023-04-25T13:50:39;20.50;66.80
1956;DHT22;978;48.314;11.562;2023-04-25T13:53:07;20.50;66.90
1956;DHT22;978;48.314;11.562;2023-04-25T13:55:35;20.50;67.00
1956;DHT22;978;48.314;11.562;2023-04-25T13:58:02;20.50;67.00
1956;DHT22;978;48.314;11.562;2023-04-25T14:00:33;20.50;67.10
1956;DHT22;978;48.314;11.562;2023-04-25T14:03:00;20.50;67.10
1956;DHT22;978;48.314;11.562;2023-04-25T14:05:30;20.50;67.20
1956;DHT22;978;48.314;11.562;2023-04-25T14:07:57;20.50;67.20
1956;DHT22;978;48.314;11.562;2023-04-25T14:10:25;20.50;67.20
1956;DHT22;978;48.314;11.562;2023-04-25T14:12:54;20.50;67.30
1956;DHT22;978;48.314;11.562;2023-04-25T14:15:21;20.50;67.30
1956;DHT22;978;48.314;11.562;2023-04-25T14:17:49;20.50;67.30
1956;DHT22;978;48.314;11.562;2023-04-25T14:20:17;20.50;67.30
1956;DHT22;978;48.314;11.562;2023-04-25T14:22:46;20.50;67.50
1956;DHT22;978;48.314;11.562;2023-04-25T14:25:13;20.50;67.50
1956;DHT22;978;48.314;11.562;2023-04-25T14:27:41;20.50;67.50
1956;DHT22;978;48.314;11.562;2023-04-25T14:30:10;20.50;67.60
1956;DHT22;978;48.314;11.562;2023-04-25T14:32:37;20.50;67.60
1956;DHT22;978;48.314;11.562;2023-04-25T14:35:05;20.50;67.70
1956;DHT22;978;48.314;11.562;2023-04-25T14:37:32;20.50;67.70
1956;DHT22;978;48.314;11.562;2023-04-25T14:39:59;20.50;67.80
1956;DHT22;978;48.314;11.562;2023-04-25T14:42:25;20.50;68.40
1956;DHT22;978;48.314;11.562;2023-04-25T14:44:54;20.50;67.90
1956;DHT22;978;48.314;11.562;2023-04-25T14:47:20;20.50;67.90
1956;DHT22;978;48.314;11.562;2023-04-25T14:49:47;20.60;68.00
1956;DHT22;978;48.314;11.562;2023-04-25T14:52:19;20.50;68.00
1956;DHT22;978;48.314;11.562;2023-04-25T14:54:46;20.50;68.00
1956;DHT22;978;48.314;11.562;2023-04-25T14:57:12;20.50;68.00
1956;DHT22;978;48.314;11.562;2023-04-25T14:59:39;20.50;67.90
1956;DHT22;978;48.314;11.562;2023-04-25T15:02:07;20.50;67.90
1956;DHT22;978;48.314;11.562;2023-04-25T15:04:34;20.60;67.90
1956;DHT22;978;48.314;11.562;2023-04-25T15:07:01;20.50;67.90
1956;DHT22;978;48.314;11.562;2023-04-25T15:09:28;20.50;67.90
1956;DHT22;978;48.314;11.562;2023-04-25T15:11:55;20.50;68.40
1956;DHT22;978;48.314;11.562;2023-04-25T15:14:21;20.50;67.90
1956;DHT22;978;48.314;11.562;2023-04-25T15:16:48;20.50;67.80
1956;DHT22;978;48.314;11.562;2023-04-25T15:19:16;20.50;67.80
1956;DHT22;978;48.314;11.562;2023-04-25T15:21:43;20.50;67.80
1956;DHT22;978;48.314;11.562;2023-04-25T15:24:10;20.50;67.80
1956;DHT22;978;48.314;11.562;2023-04-25T15:26:37;20.50;67.80
1956;DHT22;978;48.314;11.562;2023-04-25T15:29:04;20.50;67.80
1956;DHT22;978;48.314;11.562;2023-04-25T15:31:32;20.50;67.80
1956;DHT22;978;48.314;11.562;2023-04-25T15:33:58;20.50;67.80
1956;DHT22;978;48.314;11.562;2023-04-25T15:36:27;20.50;67.80
1956;DHT22;978;48.314;11.562;2023-04-25T15:38:53;20.50;67.70
1956;DHT22;978;48.314;11.562;2023-04-25T15:41:21;20.50;67.70
1956;DHT22;978;48.314;11.562;2023-04-25T15:43:48;20.50;67.70
1956;DHT22;978;48.314;11.562;2023-04-25T15:46:14;20.50;67.70
1956;DHT22;978;48.314;11.562;2023-04-25T15:48:41;20.50;67.70
1956;DHT22;978;48.314;11.562;2023-04-25T15:51:08;20.50;67.70
1956;DHT22;978;48.314;11.562;2023-04-25T15:53:36;20.50;67.70
1956;DHT22;978;48.314;11.562;2023-04-25T15:56:03;20.50;67.70
1956;DHT22;978;48.314;11.562;2023-04-25T15:58:31;20.50;67.70
1956;DHT22;978;48.314;11.562;2023-04-25T16:00:57;20.50;67.70
1956;DHT22;978;48.314;11.562;2023-04-25T16:03:24;20.50;67.70
1956;DHT22;978;48.314;11.562;2023-04-25T16:05:51;20.50;67.70
1956;DHT22;978;48.314;11.562;2023-04-25T16:08:18;20.50;67.70
1956;DHT22;978;48.314;11.562;2023-04-25T16:10:46;20.50;67.70
1956;DHT22;978;48.314;11.562;2023-04-25T16:13:13;20.50;68.30